sensor_id;sensor_type;location;lat;lon;timestamp;temperature;humidity
11836;DHT22;5977;51.972;7.640;2022-11-20T00:00:54;18.90;75.30
11836;DHT22;5977;51.972;7.640;2022-11-20T00:03:23;19.00;75.50
11836;DHT22;5977;51.972;7.640;2022-11-20T00:05:50;19.00;75.50
11836;DHT22;5977;51.972;7.640;2022-11-20T00:08:18;19.10;75.60
11836;DHT22;5977;51.972;7.640;2022-11-20T00:10:46;19.10;75.50
11836;DHT22;5977;51.972;7.640;2022-11-20T00:13:14;19.10;76.10
11836;DHT22;5977;51.972;7.640;2022-11-20T00:15:43;19.10;76.20
11836;DHT22;5977;51.972;7.640;2022-11-20T00:18:11;19.10;76.10
11836;DHT22;5977;51.972;7.640;2022-11-20T00:20:39;19.10;76.40
11836;DHT22;5977;51.972;7.640;2022-11-20T00:23:07;19.10;76.40
11836;DHT22;5977;51.972;7.640;2022-11-20T00:25:34;19.10;76.40
11836;DHT22;5977;51.972;7.640;2022-11-20T00:28:03;19.10;76.50
11836;DHT22;5977;51.972;7.640;2022-11-20T00:30:31;19.10;76.60
11836;DHT22;5977;51.972;7.640;2022-11-20T00:33:00;19.10;76.60
11836;DHT22;5977;51.972;7.640;2022-11-20T00:35:28;19.10;76.50
11836;DHT22;5977;51.972;7.640;2022-11-20T00:37:55;19.20;76.80
11836;DHT22;5977;51.972;7.640;2022-11-20T00:40:23;19.20;76.70
11836;DHT22;5977;51.972;7.640;2022-11-20T00:42:51;19.20;76.70
11836;DHT22;5977;51.972;7.640;2022-11-20T00:45:19;19.20;76.60
11836;DHT22;5977;51.972;7.640;2022-11-20T00:47:46;19.20;76.60
11836;DHT22;5977;51.972;7.640;2022-11-20T00:50:16;19.20;76.60
11836;DHT22;5977;51.972;7.640;2022-11-20T00:52:44;19.10;76.50
11836;DHT22;5977;51.972;7.640;2022-11-20T00:55:12;19.10;76.70
11836;DHT22;5977;51.972;7.640;2022-11-20T00:57:39;19.10;76.60
11836;DHT22;5977;51.972;7.640;2022-11-20T01:00:08;19.10;76.70
11836;DHT22;5977;51.972;7.640;2022-11-20T01:02:36;19.20;76.70
11836;DHT22;5977;51.972;7.640;2022-11-20T01:05:04;19.10;76.70
11836;DHT22;5977;51.972;7.640;2022-11-20T01:07:33;19.10;76.70
11836;DHT22;5977;51.972;7.640;2022-11-20T01:10:01;19.10;76.60
11836;DHT22;5977;51.972;7.640;2022-11-20T01:12:29;19.10;76.70
11836;DHT22;5977;51.972;7.640;2022-11-20T01:14:57;19.10;76.80
11836;DHT22;5977;51.972;7.640;2022-11-20T01:17:24;19.20;76.90
11836;DHT22;5977;51.972;7.640;2022-11-20T01:19:52;19.10;76.80
11836;DHT22;5977;51.972;7.640;2022-11-20T01:22:20;19.20;77.20
11836;DHT22;5977;51.972;7.640;2022-11-20T01:24:50;19.10;77.10
11836;DHT22;5977;51.972;7.640;2022-11-20T01:27:18;19.20;77.10
11836;DHT22;5977;51.972;7.640;2022-11-20T01:29:46;19.10;77.30
11836;DHT22;5977;51.972;7.640;2022-11-20T01:32:14;19.10;77.30
11836;DHT22;5977;51.972;7.640;2022-11-20T01:34:41;19.10;77.30
11836;DHT22;5977;51.972;7.640;2022-11-20T01:37:09;19.10;77.30
11836;DHT22;5977;51.972;7.640;2022-11-20T01:39:37;19.10;77.40
11836;DHT22;5977;51.972;7.640;2022-11-20T01:42:07;19.10;77.40
11836;DHT22;5977;51.972;7.640;2022-11-20T01:44:54;19.10;77.20
11836;DHT22;5977;51.972;7.640;2022-11-20T01:47:27;19.00;77.40
11836;DHT22;5977;51.972;7.640;2022-11-20T01:50:00;19.10;77.10
11836;DHT22;5977;51.972;7.640;2022-11-20T01:52:34;19.10;77.30
11836;DHT22;5977;51.972;7.640;2022-11-20T01:55:06;19.10;77.20
11836;DHT22;5977;51.972;7.640;2022-11-20T01:57:36;19.10;77.10
11836;DHT22;5977;51.972;7.640;2022-11-20T02:00:07;19.10;77.30
11836;DHT22;5977;51.972;7.640;2022-11-20T02:02:41;19.10;78.10
11836;DHT22;5977;51.972;7.640;2022-11-20T02:05:16;19.10;77.40
11836;DHT22;5977;51.972;7.640;2022-11-20T02:07:46;19.10;77.40
11836;DHT22;5977;51.972;7.640;2022-11-20T02:10:14;19.00;77.50
11836;DHT22;5977;51.972;7.640;2022-11-20T02:12:44;19.00;77.70
11836;DHT22;5977;51.972;7.640;2022-11-20T02:15:29;19.00;77.50
11836;DHT22;5977;51.972;7.640;2022-11-20T02:17:57;19.00;77.60
11836;DHT22;5977;51.972;7.640;2022-11-20T02:20:25;19.00;77.70
11836;DHT22;5977;51.972;7.640;2022-11-20T02:22:57;19.00;77.70
11836;DHT22;5977;51.972;7.640;2022-11-20T02:25:30;19.00;77.50
11836;DHT22;5977;51.972;7.640;2022-11-20T02:27:58;19.00;77.60
11836;DHT22;5977;51.972;7.640;2022-11-20T02:30:26;19.00;77.90
11836;DHT22;5977;51.972;7.640;2022-11-20T02:32:54;19.00;77.90
11836;DHT22;5977;51.972;7.640;2022-11-20T02:35:43;19.00;77.90
11836;DHT22;5977;51.972;7.640;2022-11-20T02:38:11;19.00;78.50
11836;DHT22;5977;51.972;7.640;2022-11-20T02:40:40;19.00;78.20
11836;DHT22;5977;51.972;7.640;2022-11-20T02:43:08;19.10;78.10
11836;DHT22;5977;51.972;7.640;2022-11-20T02:45:36;19.10;78.20
11836;DHT22;5977;51.972;7.640;2022-11-20T02:48:06;19.00;78.10
11836;DHT22;5977;51.972;7.640;2022-11-20T02:50:37;19.10;78.20
11836;DHT22;5977;51.972;7.640;2022-11-20T02:53:05;19.00;78.10
11836;DHT22;5977;51.972;7.640;2022-11-20T02:55:33;19.00;78.30
11836;DHT22;5977;51.972;7.640;2022-11-20T02:58:02;19.00;78.40
11836;DHT22;5977;51.972;7.640;2022-11-20T03:00:30;19.00;78.30
11836;DHT22;5977;51.972;7.640;2022-11-20T03:02:58;19.00;78.40
11836;DHT22;5977;51.972;7.640;2022-11-20T03:05:26;19.00;78.50
11836;DHT22;5977;51.972;7.640;2022-11-20T03:07:54;19.00;78.40
11836;DHT22;5977;51.972;7.640;2022-11-20T03:10:21;19.00;78.40
11836;DHT22;5977;51.972;7.640;2022-11-20T03:12:53;19.00;78.40
11836;DHT22;5977;51.972;7.640;2022-11-20T03:15:23;19.00;78.20
11836;DHT22;5977;51.972;7.640;2022-11-20T03:17:53;19.00;78.30
11836;DHT22;5977;51.972;7.640;2022-11-20T03:20:21;19.00;78.20
11836;DHT22;5977;51.972;7.640;2022-11-20T03:22:49;19.00;78.40
11836;DHT22;5977;51.972;7.640;2022-11-20T03:25:16;19.00;78.40
11836;DHT22;5977;51.972;7.640;2022-11-20T03:27:44;19.00;78.40
11836;DHT22;5977;51.972;7.640;2022-11-20T03:30:13;19.00;78.40
11836;DHT22;5977;51.972;7.640;2022-11-20T03:32:42;18.90;78.40
11836;DHT22;5977;51.972;7.640;2022-11-20T03:35:10;19.00;78.40
11836;DHT22;5977;51.972;7.640;2022-11-20T03:37:38;18.90;78.40
11836;DHT22;5977;51.972;7.640;2022-11-20T03:40:08;18.90;78.50
11836;DHT22;5977;51.972;7.640;2022-11-20T03:42:36;18.90;78.30
11836;DHT22;5977;51.972;7.640;2022-11-20T03:45:13;19.00;78.60
11836;DHT22;5977;51.972;7.640;2022-11-20T03:47:43;18.90;78.50
11836;DHT22;5977;51.972;7.640;2022-11-20T03:50:12;18.90;78.60
11836;DHT22;5977;51.972;7.640;2022-11-20T03:52:40;18.90;78.70
11836;DHT22;5977;51.972;7.640;2022-11-20T03:55:08;18.90;78.70
11836;DHT22;5977;51.972;7.640;2022-11-20T03:57:36;18.90;78.70
11836;DHT22;5977;51.972;7.640;2022-11-20T04:00:05;19.00;78.80
11836;DHT22;5977;51.972;7.640;2022-11-20T04:02:33;18.90;78.70
11836;DHT22;5977;51.972;7.640;2022-11-20T04:05:02;19.00;78.90
11836;DHT22;5977;51.972;7.640;2022-11-20T04:07:30;18.90;78.70
11836;DHT22;5977;51.972;7.640;2022-11-20T04:09:58;18.90;78.80
11836;DHT22;5977;51.972;7.640;2022-11-20T04:12:26;18.90;78.90
11836;DHT22;5977;51.972;7.640;2022-11-20T04:14:54;18.90;79.00
11836;DHT22;5977;51.972;7.640;2022-11-20T04:17:21;18.90;79.10
11836;DHT22;5977;51.972;7.640;2022-11-20T04:19:49;18.90;79.00
11836;DHT22;5977;51.972;7.640;2022-11-20T04:22:18;18.90;79.10
11836;DHT22;5977;51.972;7.640;2022-11-20T04:24:46;18.90;79.00
11836;DHT22;5977;51.972;7.640;2022-11-20T04:27:14;18.90;79.10
11836;DHT22;5977;51.972;7.640;2022-11-20T04:29:42;18.90;79.20
11836;DHT22;5977;51.972;7.640;2022-11-20T04:32:10;18.90;79.50
11836;DHT22;5977;51.972;7.640;2022-11-20T04:34:38;18.70;79.40
11836;DHT22;5977;51.972;7.640;2022-11-20T04:37:05;18.70;78.40
11836;DHT22;5977;51.972;7.640;2022-11-20T04:39:35;18.80;78.40
11836;DHT22;5977;51.972;7.640;2022-11-20T04:42:02;18.70;78.30
11836;DHT22;5977;51.972;7.640;2022-11-20T04:44:49;18.80;78.40
11836;DHT22;5977;51.972;7.640;2022-11-20T04:47:16;18.80;78.40
11836;DHT22;5977;51.972;7.640;2022-11-20T04:49:44;18.80;78.50
11836;DHT22;5977;51.972;7.640;2022-11-20T04:52:12;18.80;78.50
11836;DHT22;5977;51.972;7.640;2022-11-20T04:54:42;18.90;78.70
11836;DHT22;5977;51.972;7.640;2022-11-20T04:57:09;18.80;78.50
11836;DHT22;5977;51.972;7.640;2022-11-20T04:59:40;18.80;78.80
11836;DHT22;5977;51.972;7.640;2022-11-20T05:02:09;18.80;78.80
11836;DHT22;5977;51.972;7.640;2022-11-20T05:04:37;18.80;78.90
11836;DHT22;5977;51.972;7.640;2022-11-20T05:07:05;18.80;78.90
11836;DHT22;5977;51.972;7.640;2022-11-20T05:09:33;18.80;79.00
11836;DHT22;5977;51.972;7.640;2022-11-20T05:12:02;18.80;79.00
11836;DHT22;5977;51.972;7.640;2022-11-20T05:14:30;18.80;79.00
11836;DHT22;5977;51.972;7.640;2022-11-20T05:16:58;18.80;79.20
11836;DHT22;5977;51.972;7.640;2022-11-20T05:19:25;18.80;79.30
11836;DHT22;5977;51.972;7.640;2022-11-20T05:21:53;18.80;79.40
11836;DHT22;5977;51.972;7.640;2022-11-20T05:24:21;18.90;79.50
11836;DHT22;5977;51.972;7.640;2022-11-20T05:26:49;18.90;79.50
11836;DHT22;5977;51.972;7.640;2022-11-20T05:29:18;18.90;80.20
11836;DHT22;5977;51.972;7.640;2022-11-20T05:31:46;18.90;79.30
11836;DHT22;5977;51.972;7.640;2022-11-20T05:34:14;19.00;79.60
11836;DHT22;5977;51.972;7.640;2022-11-20T05:36:42;18.90;79.50
11836;DHT22;5977;51.972;7.640;2022-11-20T05:39:10;18.90;79.40
11836;DHT22;5977;51.972;7.640;2022-11-20T05:41:38;18.90;79.40
11836;DHT22;5977;51.972;7.640;2022-11-20T05:44:05;18.90;79.40
11836;DHT22;5977;51.972;7.640;2022-11-20T05:46:34;18.90;79.40
11836;DHT22;5977;51.972;7.640;2022-11-20T05:49:02;18.90;79.40
11836;DHT22;5977;51.972;7.640;2022-11-20T05:51:30;18.90;79.50
11836;DHT22;5977;51.972;7.640;2022-11-20T05:53:58;18.90;79.60
11836;DHT22;5977;51.972;7.640;2022-11-20T05:56:26;18.90;79.60
11836;DHT22;5977;51.972;7.640;2022-11-20T05:58:53;18.90;79.70
11836;DHT22;5977;51.972;7.640;2022-11-20T06:01:23;18.90;79.60
11836;DHT22;5977;51.972;7.640;2022-11-20T06:03:53;18.90;79.50
11836;DHT22;5977;51.972;7.640;2022-11-20T06:06:21;18.90;79.40
11836;DHT22;5977;51.972;7.640;2022-11-20T06:08:49;18.90;79.70
11836;DHT22;5977;51.972;7.640;2022-11-20T06:11:17;18.90;79.60
11836;DHT22;5977;51.972;7.640;2022-11-20T06:13:45;18.90;79.60
11836;DHT22;5977;51.972;7.640;2022-11-20T06:16:15;18.90;79.60
11836;DHT22;5977;51.972;7.640;2022-11-20T06:18:43;18.90;79.80
11836;DHT22;5977;51.972;7.640;2022-11-20T06:21:14;18.60;79.60
11836;DHT22;5977;51.972;7.640;2022-11-20T06:23:43;18.60;78.00
11836;DHT22;5977;51.972;7.640;2022-11-20T06:26:13;18.70;78.20
11836;DHT22;5977;51.972;7.640;2022-11-20T06:28:41;18.80;78.10
11836;DHT22;5977;51.972;7.640;2022-11-20T06:31:11;19.00;78.50
11836;DHT22;5977;51.972;7.640;2022-11-20T06:33:40;19.00;78.30
11836;DHT22;5977;51.972;7.640;2022-11-20T06:36:09;19.00;78.50
11836;DHT22;5977;51.972;7.640;2022-11-20T06:38:39;19.00;78.50
11836;DHT22;5977;51.972;7.640;2022-11-20T06:41:11;18.90;78.10
11836;DHT22;5977;51.972;7.640;2022-11-20T06:43:39;18.80;77.20
11836;DHT22;5977;51.972;7.640;2022-11-20T06:46:09;18.90;77.50
11836;DHT22;5977;51.972;7.640;2022-11-20T06:48:37;18.70;77.50
11836;DHT22;5977;51.972;7.640;2022-11-20T06:51:05;18.40;77.10
11836;DHT22;5977;51.972;7.640;2022-11-20T06:53:34;18.20;76.80
11836;DHT22;5977;51.972;7.640;2022-11-20T06:56:03;18.10;76.80
11836;DHT22;5977;51.972;7.640;2022-11-20T06:58:32;18.00;76.70
11836;DHT22;5977;51.972;7.640;2022-11-20T07:01:03;17.90;76.70
11836;DHT22;5977;51.972;7.640;2022-11-20T07:03:31;18.00;76.80
11836;DHT22;5977;51.972;7.640;2022-11-20T07:06:00;18.00;76.90
11836;DHT22;5977;51.972;7.640;2022-11-20T07:08:28;18.10;76.30
11836;DHT22;5977;51.972;7.640;2022-11-20T07:10:57;18.30;75.80
11836;DHT22;5977;51.972;7.640;2022-11-20T07:13:28;18.40;75.60
11836;DHT22;5977;51.972;7.640;2022-11-20T07:15:59;18.40;75.40
11836;DHT22;5977;51.972;7.640;2022-11-20T07:18:28;18.40;75.30
11836;DHT22;5977;51.972;7.640;2022-11-20T07:20:59;18.40;75.40
11836;DHT22;5977;51.972;7.640;2022-11-20T07:23:27;18.40;75.40
11836;DHT22;5977;51.972;7.640;2022-11-20T07:25:55;18.40;75.50
11836;DHT22;5977;51.972;7.640;2022-11-20T07:28:23;18.40;75.50
11836;DHT22;5977;51.972;7.640;2022-11-20T07:30:52;18.40;75.60
11836;DHT22;5977;51.972;7.640;2022-11-20T07:33:20;18.40;75.50
11836;DHT22;5977;51.972;7.640;2022-11-20T07:35:48;18.40;75.70
11836;DHT22;5977;51.972;7.640;2022-11-20T07:38:16;18.40;75.70
11836;DHT22;5977;51.972;7.640;2022-11-20T07:40:44;18.40;75.80
11836;DHT22;5977;51.972;7.640;2022-11-20T07:43:12;18.40;75.70
11836;DHT22;5977;51.972;7.640;2022-11-20T07:45:41;18.30;75.80
11836;DHT22;5977;51.972;7.640;2022-11-20T07:48:10;18.40;75.90
11836;DHT22;5977;51.972;7.640;2022-11-20T07:50:38;18.40;75.70
11836;DHT22;5977;51.972;7.640;2022-11-20T07:53:06;18.40;75.80
11836;DHT22;5977;51.972;7.640;2022-11-20T07:55:34;18.40;75.90
11836;DHT22;5977;51.972;7.640;2022-11-20T07:58:02;18.30;75.80
11836;DHT22;5977;51.972;7.640;2022-11-20T08:00:30;18.40;75.80
11836;DHT22;5977;51.972;7.640;2022-11-20T08:02:58;18.40;75.90
11836;DHT22;5977;51.972;7.640;2022-11-20T08:05:27;18.30;75.80
11836;DHT22;5977;51.972;7.640;2022-11-20T08:07:55;18.40;75.70
11836;DHT22;5977;51.972;7.640;2022-11-20T08:10:22;18.40;75.80
11836;DHT22;5977;51.972;7.640;2022-11-20T08:12:52;18.40;75.80
11836;DHT22;5977;51.972;7.640;2022-11-20T08:15:39;18.40;75.70
11836;DHT22;5977;51.972;7.640;2022-11-20T08:18:08;18.40;75.60
11836;DHT22;5977;51.972;7.640;2022-11-20T08:21:01;18.30;75.60
11836;DHT22;5977;51.972;7.640;2022-11-20T08:23:30;18.30;75.30
11836;DHT22;5977;51.972;7.640;2022-11-20T08:25:58;18.40;75.40
11836;DHT22;5977;51.972;7.640;2022-11-20T08:28:26;18.40;75.40
11836;DHT22;5977;51.972;7.640;2022-11-20T08:30:58;18.30;75.40
11836;DHT22;5977;51.972;7.640;2022-11-20T08:33:26;18.20;75.60
11836;DHT22;5977;51.972;7.640;2022-11-20T08:36:00;18.10;75.30
11836;DHT22;5977;51.972;7.640;2022-11-20T08:38:28;18.20;75.70
11836;DHT22;5977;51.972;7.640;2022-11-20T08:40:57;18.10;75.70
11836;DHT22;5977;51.972;7.640;2022-11-20T08:43:39;17.90;75.20
11836;DHT22;5977;51.972;7.640;2022-11-20T08:46:06;17.90;75.00
11836;DHT22;5977;51.972;7.640;2022-11-20T08:48:34;17.80;74.80
11836;DHT22;5977;51.972;7.640;2022-11-20T08:51:04;17.90;74.70
11836;DHT22;5977;51.972;7.640;2022-11-20T08:53:32;17.80;74.40
11836;DHT22;5977;51.972;7.640;2022-11-20T08:55:59;17.80;74.40
11836;DHT22;5977;51.972;7.640;2022-11-20T08:58:27;17.80;74.30
11836;DHT22;5977;51.972;7.640;2022-11-20T09:00:56;17.90;74.20
11836;DHT22;5977;51.972;7.640;2022-11-20T09:03:25;18.00;74.10
11836;DHT22;5977;51.972;7.640;2022-11-20T09:05:58;18.00;73.70
11836;DHT22;5977;51.972;7.640;2022-11-20T09:08:28;18.10;73.50
11836;DHT22;5977;51.972;7.640;2022-11-20T09:10:57;18.10;73.00
11836;DHT22;5977;51.972;7.640;2022-11-20T09:13:27;18.10;72.90
11836;DHT22;5977;51.972;7.640;2022-11-20T09:15:56;18.20;72.80
11836;DHT22;5977;51.972;7.640;2022-11-20T09:18:24;18.20;72.70
11836;DHT22;5977;51.972;7.640;2022-11-20T09:20:56;18.20;72.60
11836;DHT22;5977;51.972;7.640;2022-11-20T09:23:24;18.20;72.30
11836;DHT22;5977;51.972;7.640;2022-11-20T09:25:53;18.20;72.50
11836;DHT22;5977;51.972;7.640;2022-11-20T09:28:26;18.20;72.20
11836;DHT22;5977;51.972;7.640;2022-11-20T09:30:54;18.30;72.20
11836;DHT22;5977;51.972;7.640;2022-11-20T09:33:21;18.30;72.10
11836;DHT22;5977;51.972;7.640;2022-11-20T09:35:49;18.30;71.90
11836;DHT22;5977;51.972;7.640;2022-11-20T09:38:17;18.40;71.80
11836;DHT22;5977;51.972;7.640;2022-11-20T09:40:48;18.40;71.70
11836;DHT22;5977;51.972;7.640;2022-11-20T09:43:27;18.40;71.50
11836;DHT22;5977;51.972;7.640;2022-11-20T09:46:07;18.40;71.30
11836;DHT22;5977;51.972;7.640;2022-11-20T09:49:02;18.40;71.30
11836;DHT22;5977;51.972;7.640;2022-11-20T09:51:41;18.40;71.80
11836;DHT22;5977;51.972;7.640;2022-11-20T09:54:16;18.40;71.10
11836;DHT22;5977;51.972;7.640;2022-11-20T09:56:46;18.40;71.20
11836;DHT22;5977;51.972;7.640;2022-11-20T09:59:27;18.40;71.40
11836;DHT22;5977;51.972;7.640;2022-11-20T10:01:57;18.40;71.30
11836;DHT22;5977;51.972;7.640;2022-11-20T10:04:29;18.40;71.90
11836;DHT22;5977;51.972;7.640;2022-11-20T10:07:04;18.40;71.80
11836;DHT22;5977;51.972;7.640;2022-11-20T10:09:56;18.40;71.60
11836;DHT22;5977;51.972;7.640;2022-11-20T10:12:29;18.50;71.60
11836;DHT22;5977;51.972;7.640;2022-11-20T10:15:10;18.50;71.50
11836;DHT22;5977;51.972;7.640;2022-11-20T10:18:01;18.40;71.40
11836;DHT22;5977;51.972;7.640;2022-11-20T10:20:40;18.50;71.30
11836;DHT22;5977;51.972;7.640;2022-11-20T10:23:24;18.40;71.40
11836;DHT22;5977;51.972;7.640;2022-11-20T10:26:01;18.50;71.50
11836;DHT22;5977;51.972;7.640;2022-11-20T10:28:38;18.50;71.60
11836;DHT22;5977;51.972;7.640;2022-11-20T10:31:28;18.40;71.50
11836;DHT22;5977;51.972;7.640;2022-11-20T10:33:59;18.50;71.40
11836;DHT22;5977;51.972;7.640;2022-11-20T10:36:42;18.60;71.40
11836;DHT22;5977;51.972;7.640;2022-11-20T10:39:16;18.60;71.20
11836;DHT22;5977;51.972;7.640;2022-11-20T10:41:50;18.60;70.80
11836;DHT22;5977;51.972;7.640;2022-11-20T10:44:20;18.60;70.50
11836;DHT22;5977;51.972;7.640;2022-11-20T10:47:05;18.60;70.40
11836;DHT22;5977;51.972;7.640;2022-11-20T10:49:37;18.60;70.20
11836;DHT22;5977;51.972;7.640;2022-11-20T10:52:12;18.50;70.30
11836;DHT22;5977;51.972;7.640;2022-11-20T10:54:49;18.50;70.10
11836;DHT22;5977;51.972;7.640;2022-11-20T10:57:29;18.40;70.00
11836;DHT22;5977;51.972;7.640;2022-11-20T11:00:05;18.40;70.10
11836;DHT22;5977;51.972;7.640;2022-11-20T11:02:39;18.30;70.10
11836;DHT22;5977;51.972;7.640;2022-11-20T11:05:18;18.30;70.20
11836;DHT22;5977;51.972;7.640;2022-11-20T11:07:50;18.20;70.20
11836;DHT22;5977;51.972;7.640;2022-11-20T11:10:20;18.10;70.50
11836;DHT22;5977;51.972;7.640;2022-11-20T11:12:48;18.00;70.60
11836;DHT22;5977;51.972;7.640;2022-11-20T11:15:26;18.00;70.80
11836;DHT22;5977;51.972;7.640;2022-11-20T11:17:55;18.00;70.40
11836;DHT22;5977;51.972;7.640;2022-11-20T11:20:25;18.00;70.50
11836;DHT22;5977;51.972;7.640;2022-11-20T11:22:55;18.00;70.50
11836;DHT22;5977;51.972;7.640;2022-11-20T11:25:26;17.90;70.50
11836;DHT22;5977;51.972;7.640;2022-11-20T11:27:56;17.90;70.80
11836;DHT22;5977;51.972;7.640;2022-11-20T11:30:26;18.00;71.20
11836;DHT22;5977;51.972;7.640;2022-11-20T11:33:08;17.90;71.40
11836;DHT22;5977;51.972;7.640;2022-11-20T11:35:44;17.90;71.10
11836;DHT22;5977;51.972;7.640;2022-11-20T11:38:29;17.90;71.20
11836;DHT22;5977;51.972;7.640;2022-11-20T11:40:57;17.90;71.20
11836;DHT22;5977;51.972;7.640;2022-11-20T11:43:28;18.00;71.60
11836;DHT22;5977;51.972;7.640;2022-11-20T11:46:25;17.90;71.30
11836;DHT22;5977;51.972;7.640;2022-11-20T11:48:57;18.00;71.30
11836;DHT22;5977;51.972;7.640;2022-11-20T11:51:29;18.10;71.40
11836;DHT22;5977;51.972;7.640;2022-11-20T11:54:00;18.10;71.30
11836;DHT22;5977;51.972;7.640;2022-11-20T11:56:28;18.10;71.50
11836;DHT22;5977;51.972;7.640;2022-11-20T11:59:00;18.10;71.50
11836;DHT22;5977;51.972;7.640;2022-11-20T12:01:35;18.10;71.50
11836;DHT22;5977;51.972;7.640;2022-11-20T12:04:14;18.10;71.50
11836;DHT22;5977;51.972;7.640;2022-11-20T12:06:48;18.10;71.40
11836;DHT22;5977;51.972;7.640;2022-11-20T12:09:20;18.10;71.60
11836;DHT22;5977;51.972;7.640;2022-11-20T12:11:55;18.10;71.60
11836;DHT22;5977;51.972;7.640;2022-11-20T12:14:30;18.20;71.60
11836;DHT22;5977;51.972;7.640;2022-11-20T12:17:00;18.20;71.60
11836;DHT22;5977;51.972;7.640;2022-11-20T12:19:31;18.10;71.70
11836;DHT22;5977;51.972;7.640;2022-11-20T12:22:07;18.10;71.60
11836;DHT22;5977;51.972;7.640;2022-11-20T12:24:47;18.10;71.60
11836;DHT22;5977;51.972;7.640;2022-11-20T12:27:52;18.10;71.70
11836;DHT22;5977;51.972;7.640;2022-11-20T12:30:23;18.00;71.60
11836;DHT22;5977;51.972;7.640;2022-11-20T12:33:03;18.00;72.10
11836;DHT22;5977;51.972;7.640;2022-11-20T12:35:48;17.90;71.90
11836;DHT22;5977;51.972;7.640;2022-11-20T12:38:53;18.00;72.10
11836;DHT22;5977;51.972;7.640;2022-11-20T12:41:39;18.00;72.00
11836;DHT22;5977;51.972;7.640;2022-11-20T12:44:41;17.90;72.20
11836;DHT22;5977;51.972;7.640;2022-11-20T12:47:33;17.90;72.20
11836;DHT22;5977;51.972;7.640;2022-11-20T12:50:14;17.90;72.40
11836;DHT22;5977;51.972;7.640;2022-11-20T12:52:48;17.90;72.30
11836;DHT22;5977;51.972;7.640;2022-11-20T12:55:28;17.90;72.50
11836;DHT22;5977;51.972;7.640;2022-11-20T12:58:04;17.90;72.40
11836;DHT22;5977;51.972;7.640;2022-11-20T13:00:39;17.80;72.50
11836;DHT22;5977;51.972;7.640;2022-11-20T13:06:16;17.80;72.30
11836;DHT22;5977;51.972;7.640;2022-11-20T13:08:50;17.80;72.80
11836;DHT22;5977;51.972;7.640;2022-11-20T13:11:25;17.80;72.50
11836;DHT22;5977;51.972;7.640;2022-11-20T13:14:11;17.80;72.50
11836;DHT22;5977;51.972;7.640;2022-11-20T13:16:45;17.80;72.40
11836;DHT22;5977;51.972;7.640;2022-11-20T13:19:17;17.80;72.50
11836;DHT22;5977;51.972;7.640;2022-11-20T13:21:46;17.80;72.50
11836;DHT22;5977;51.972;7.640;2022-11-20T13:24:25;17.80;72.50
11836;DHT22;5977;51.972;7.640;2022-11-20T13:27:02;17.90;72.40
11836;DHT22;5977;51.972;7.640;2022-11-20T13:29:31;17.90;72.20
11836;DHT22;5977;51.972;7.640;2022-11-20T13:32:05;17.80;72.40
11836;DHT22;5977;51.972;7.640;2022-11-20T13:34:34;17.80;72.30
11836;DHT22;5977;51.972;7.640;2022-11-20T13:37:02;17.80;72.40
11836;DHT22;5977;51.972;7.640;2022-11-20T13:39:34;17.80;72.50
11836;DHT22;5977;51.972;7.640;2022-11-20T13:42:19;17.80;72.50
11836;DHT22;5977;51.972;7.640;2022-11-20T13:44:53;17.80;72.50
11836;DHT22;5977;51.972;7.640;2022-11-20T13:47:23;17.80;72.60
11836;DHT22;5977;51.972;7.640;2022-11-20T13:49:52;17.70;72.70
11836;DHT22;5977;51.972;7.640;2022-11-20T13:52:34;17.80;72.90
11836;DHT22;5977;51.972;7.640;2022-11-20T13:55:16;17.70;72.60
11836;DHT22;5977;51.972;7.640;2022-11-20T13:58:04;17.70;72.60
11836;DHT22;5977;51.972;7.640;2022-11-20T14:00:33;17.70;72.70
11836;DHT22;5977;51.972;7.640;2022-11-20T14:03:08;17.70;73.00
11836;DHT22;5977;51.972;7.640;2022-11-20T14:05:40;17.70;72.70
11836;DHT22;5977;51.972;7.640;2022-11-20T14:08:24;17.70;72.90
11836;DHT22;5977;51.972;7.640;2022-11-20T14:11:04;17.70;72.80
11836;DHT22;5977;51.972;7.640;2022-11-20T14:13:32;17.70;72.80
11836;DHT22;5977;51.972;7.640;2022-11-20T14:16:00;17.70;73.20
11836;DHT22;5977;51.972;7.640;2022-11-20T14:18:27;17.70;73.20
11836;DHT22;5977;51.972;7.640;2022-11-20T14:20:55;17.70;73.40
11836;DHT22;5977;51.972;7.640;2022-11-20T14:23:24;17.60;73.40
11836;DHT22;5977;51.972;7.640;2022-11-20T14:25:56;17.70;73.60
11836;DHT22;5977;51.972;7.640;2022-11-20T14:28:27;17.70;73.70
11836;DHT22;5977;51.972;7.640;2022-11-20T14:30:56;17.70;73.50
11836;DHT22;5977;51.972;7.640;2022-11-20T14:33:26;17.70;73.70
11836;DHT22;5977;51.972;7.640;2022-11-20T14:35:55;17.70;73.70
11836;DHT22;5977;51.972;7.640;2022-11-20T14:38:26;17.70;73.80
11836;DHT22;5977;51.972;7.640;2022-11-20T14:41:04;17.70;73.80
11836;DHT22;5977;51.972;7.640;2022-11-20T14:43:34;17.70;74.00
11836;DHT22;5977;51.972;7.640;2022-11-20T14:46:03;17.70;73.80
11836;DHT22;5977;51.972;7.640;2022-11-20T14:48:36;17.70;74.00
11836;DHT22;5977;51.972;7.640;2022-11-20T14:51:05;17.70;74.00
11836;DHT22;5977;51.972;7.640;2022-11-20T14:53:33;17.70;74.00
11836;DHT22;5977;51.972;7.640;2022-11-20T14:56:02;17.70;74.00
11836;DHT22;5977;51.972;7.640;2022-11-20T14:58:32;17.60;74.00
11836;DHT22;5977;51.972;7.640;2022-11-20T15:01:03;17.50;74.00
11836;DHT22;5977;51.972;7.640;2022-11-20T15:03:32;17.50;74.00
11836;DHT22;5977;51.972;7.640;2022-11-20T15:06:01;17.60;74.10
11836;DHT22;5977;51.972;7.640;2022-11-20T15:08:29;17.50;74.20
11836;DHT22;5977;51.972;7.640;2022-11-20T15:10:57;17.50;74.30
11836;DHT22;5977;51.972;7.640;2022-11-20T15:13:29;17.50;74.50
11836;DHT22;5977;51.972;7.640;2022-11-20T15:15:58;17.50;74.50
11836;DHT22;5977;51.972;7.640;2022-11-20T15:18:31;17.40;74.60
11836;DHT22;5977;51.972;7.640;2022-11-20T15:21:01;17.40;74.50
11836;DHT22;5977;51.972;7.640;2022-11-20T15:23:30;17.40;74.60
11836;DHT22;5977;51.972;7.640;2022-11-20T15:25:58;17.40;74.80
11836;DHT22;5977;51.972;7.640;2022-11-20T15:28:30;17.40;74.90
11836;DHT22;5977;51.972;7.640;2022-11-20T15:30:58;17.40;74.70
11836;DHT22;5977;51.972;7.640;2022-11-20T15:33:27;17.30;74.80
11836;DHT22;5977;51.972;7.640;2022-11-20T15:35:55;17.40;74.90
11836;DHT22;5977;51.972;7.640;2022-11-20T15:38:24;17.30;74.90
11836;DHT22;5977;51.972;7.640;2022-11-20T15:40:52;17.30;75.00
11836;DHT22;5977;51.972;7.640;2022-11-20T15:43:20;17.30;75.00
11836;DHT22;5977;51.972;7.640;2022-11-20T15:45:49;17.30;75.00
11836;DHT22;5977;51.972;7.640;2022-11-20T15:48:20;17.30;75.00
11836;DHT22;5977;51.972;7.640;2022-11-20T15:50:53;17.30;75.00
11836;DHT22;5977;51.972;7.640;2022-11-20T15:53:23;17.30;74.90
11836;DHT22;5977;51.972;7.640;2022-11-20T15:55:51;17.30;75.20
11836;DHT22;5977;51.972;7.640;2022-11-20T15:58:19;17.30;75.20
11836;DHT22;5977;51.972;7.640;2022-11-20T16:00:47;17.20;75.10
11836;DHT22;5977;51.972;7.640;2022-11-20T16:03:15;17.30;75.30
11836;DHT22;5977;51.972;7.640;2022-11-20T16:05:44;17.30;75.30
11836;DHT22;5977;51.972;7.640;2022-11-20T16:08:13;17.30;75.30
11836;DHT22;5977;51.972;7.640;2022-11-20T16:10:41;17.30;75.20
11836;DHT22;5977;51.972;7.640;2022-11-20T16:13:12;17.30;75.40